EZS79ER LSGG-LIEO
Flight info
| Callsign | EZS79ER |
|---|---|
| Flight time | 1h 12m |
| Altitude | 33000 |
| Route | MEDAM DCT VEVAR DCT BARSO DCT KOLON DCT LOKDU M623 MINKA |
| Aircraft | A320/M-SDE2E3FGHIJ1RWXYZ/LB1 |
Departure
| Time | 2026-05-06 13:37 |
|---|---|
| Airport | Geneva International Airport (LSGG) |
Arrival
| Time | 2026-05-06 14:49 |
|---|---|
| Airport | Olbia Costa Smeralda Airport (LIEO) |
| Time | Latitude | Longitude | Altitude | Speed | Heading |
|---|---|---|---|---|---|
| 2026-05-06 13:27 | 46.23339 | 6.10688 | 1390 ft | 0 kts | 271° |
| 2026-05-06 13:30 | 46.23339 | 6.10683 | 1390 ft | 2 kts | 271° |
| 2026-05-06 13:30 | 46.23339 | 6.10652 | 1391 ft | 7 kts | 271° |
| 2026-05-06 13:30 | 46.23400 | 6.10640 | 1386 ft | 15 kts | 31° |
| 2026-05-06 13:31 | 46.23500 | 6.10780 | 1382 ft | 24 kts | 46° |
| 2026-05-06 13:31 | 46.23621 | 6.10958 | 1382 ft | 25 kts | 46° |
| 2026-05-06 13:31 | 46.23740 | 6.11133 | 1380 ft | 24 kts | 45° |
| 2026-05-06 13:31 | 46.23856 | 6.11303 | 1379 ft | 23 kts | 45° |
| 2026-05-06 13:32 | 46.23974 | 6.11474 | 1375 ft | 26 kts | 45° |
| 2026-05-06 13:32 | 46.24105 | 6.11668 | 1374 ft | 27 kts | 45° |
| 2026-05-06 13:32 | 46.24236 | 6.11861 | 1374 ft | 27 kts | 45° |
| 2026-05-06 13:32 | 46.24366 | 6.12052 | 1372 ft | 26 kts | 45° |
| 2026-05-06 13:33 | 46.24494 | 6.12238 | 1371 ft | 26 kts | 45° |
| 2026-05-06 13:33 | 46.24615 | 6.12417 | 1370 ft | 24 kts | 45° |
| 2026-05-06 13:33 | 46.24729 | 6.12586 | 1369 ft | 23 kts | 45° |
| 2026-05-06 13:33 | 46.24827 | 6.12679 | 1369 ft | 15 kts | 14° |
| 2026-05-06 13:34 | 46.24905 | 6.12714 | 1369 ft | 5 kts | 17° |
| 2026-05-06 13:34 | 46.24913 | 6.12718 | 1369 ft | 0 kts | 17° |
| 2026-05-06 13:34 | 46.24932 | 6.12725 | 1368 ft | 9 kts | 14° |
| 2026-05-06 13:35 | 46.25005 | 6.12726 | 1369 ft | 9 kts | 334° |
| 2026-05-06 13:35 | 46.25016 | 6.12684 | 1372 ft | 3 kts | 257° |
| 2026-05-06 13:35 | 46.24995 | 6.12642 | 1371 ft | 3 kts | 225° |
| 2026-05-06 13:35 | 46.24989 | 6.12633 | 1371 ft | 2 kts | 225° |
| 2026-05-06 13:36 | 46.24941 | 6.12562 | 1371 ft | 31 kts | 226° |
| 2026-05-06 13:36 | 46.24616 | 6.12087 | 1373 ft | 99 kts | 225° |
| 2026-05-06 13:36 | 46.24005 | 6.11188 | 1386 ft | 149 kts | 225° |
| 2026-05-06 13:36 | 46.23270 | 6.10095 | 1992 ft | 152 kts | 225° |
| 2026-05-06 13:37 | 46.22524 | 6.08990 | 2735 ft | 159 kts | 225° |
| 2026-05-06 13:37 | 46.21692 | 6.07772 | 3231 ft | 181 kts | 225° |
| 2026-05-06 13:37 | 46.20751 | 6.06394 | 3612 ft | 206 kts | 225° |
| 2026-05-06 13:37 | 46.19684 | 6.04833 | 4098 ft | 231 kts | 226° |
| 2026-05-06 13:38 | 46.18494 | 6.03097 | 4681 ft | 252 kts | 226° |
| 2026-05-06 13:38 | 46.17238 | 6.01273 | 5524 ft | 259 kts | 226° |
| 2026-05-06 13:38 | 46.15961 | 5.99416 | 6472 ft | 263 kts | 226° |
| 2026-05-06 13:38 | 46.14650 | 5.97553 | 7384 ft | 267 kts | 220° |
| 2026-05-06 13:39 | 46.12985 | 5.96347 | 8273 ft | 274 kts | 195° |
| 2026-05-06 13:39 | 46.11070 | 5.96256 | 9184 ft | 281 kts | 171° |
| 2026-05-06 13:39 | 46.09246 | 5.97349 | 10040 ft | 291 kts | 148° |
| 2026-05-06 13:39 | 46.07588 | 5.99202 | 10423 ft | 314 kts | 143° |
| 2026-05-06 13:40 | 46.05848 | 6.01248 | 10885 ft | 329 kts | 143° |
| 2026-05-06 13:40 | 46.04075 | 6.03369 | 11663 ft | 334 kts | 142° |
| 2026-05-06 13:40 | 46.02283 | 6.05527 | 12461 ft | 338 kts | 142° |
| 2026-05-06 13:40 | 46.00475 | 6.07700 | 13250 ft | 341 kts | 142° |
| 2026-05-06 13:41 | 45.98641 | 6.09893 | 13975 ft | 345 kts | 142° |
| 2026-05-06 13:41 | 45.96782 | 6.12102 | 14668 ft | 347 kts | 143° |
| 2026-05-06 13:41 | 45.94911 | 6.14314 | 15363 ft | 350 kts | 143° |
| 2026-05-06 13:41 | 45.93022 | 6.16537 | 16075 ft | 352 kts | 143° |
| 2026-05-06 13:42 | 45.91119 | 6.18771 | 16771 ft | 354 kts | 143° |
| 2026-05-06 13:42 | 45.89211 | 6.21010 | 17422 ft | 356 kts | 143° |
| 2026-05-06 13:42 | 45.87290 | 6.23269 | 18081 ft | 358 kts | 143° |
| 2026-05-06 13:42 | 45.85358 | 6.25542 | 18653 ft | 360 kts | 143° |
| 2026-05-06 13:43 | 45.83265 | 6.28005 | 19285 ft | 362 kts | 143° |
| 2026-05-06 13:43 | 45.81413 | 6.30186 | 19844 ft | 364 kts | 143° |
| 2026-05-06 13:43 | 45.79446 | 6.32497 | 20444 ft | 367 kts | 143° |
| 2026-05-06 13:43 | 45.77469 | 6.34815 | 21026 ft | 368 kts | 143° |
| 2026-05-06 13:44 | 45.75582 | 6.37025 | 21563 ft | 370 kts | 143° |
| 2026-05-06 13:44 | 45.73642 | 6.39292 | 22089 ft | 372 kts | 144° |
| 2026-05-06 13:44 | 45.71600 | 6.41676 | 22656 ft | 375 kts | 144° |
| 2026-05-06 13:44 | 45.69598 | 6.44011 | 23190 ft | 377 kts | 144° |
| 2026-05-06 13:45 | 45.67532 | 6.46420 | 23687 ft | 380 kts | 144° |
| 2026-05-06 13:45 | 45.63399 | 6.51232 | 24530 ft | 386 kts | 145° |
| 2026-05-06 13:45 | 45.61313 | 6.53657 | 24951 ft | 389 kts | 145° |
| 2026-05-06 13:46 | 45.59207 | 6.56105 | 25335 ft | 392 kts | 146° |
| 2026-05-06 13:46 | 45.57087 | 6.58570 | 25730 ft | 395 kts | 146° |
| 2026-05-06 13:46 | 45.54945 | 6.61055 | 26130 ft | 398 kts | 147° |
| 2026-05-06 13:46 | 45.52789 | 6.63551 | 26508 ft | 401 kts | 147° |
| 2026-05-06 13:47 | 45.50621 | 6.66055 | 26873 ft | 403 kts | 147° |
| 2026-05-06 13:47 | 45.48472 | 6.68537 | 27241 ft | 405 kts | 147° |
| 2026-05-06 13:47 | 45.46275 | 6.71075 | 27632 ft | 408 kts | 148° |
| 2026-05-06 13:47 | 45.44065 | 6.73626 | 27992 ft | 410 kts | 148° |
| 2026-05-06 13:48 | 45.41847 | 6.76188 | 28355 ft | 412 kts | 148° |
| 2026-05-06 13:48 | 45.39612 | 6.78775 | 28748 ft | 415 kts | 149° |
| 2026-05-06 13:48 | 45.37374 | 6.81368 | 29125 ft | 416 kts | 148° |
| 2026-05-06 13:48 | 45.35123 | 6.83976 | 29478 ft | 418 kts | 148° |
| 2026-05-06 13:49 | 45.32863 | 6.86587 | 29830 ft | 420 kts | 149° |
| 2026-05-06 13:49 | 45.30590 | 6.89209 | 30141 ft | 422 kts | 149° |
| 2026-05-06 13:49 | 45.28198 | 6.91544 | 30426 ft | 413 kts | 159° |
| 2026-05-06 13:49 | 45.25582 | 6.93133 | 30664 ft | 405 kts | 169° |
| 2026-05-06 13:50 | 45.22860 | 6.94078 | 30958 ft | 402 kts | 175° |
| 2026-05-06 13:50 | 45.20100 | 6.94714 | 31218 ft | 402 kts | 177° |
| 2026-05-06 13:50 | 45.17329 | 6.95305 | 31462 ft | 404 kts | 176° |
| 2026-05-06 13:50 | 45.14564 | 6.95995 | 31867 ft | 405 kts | 175° |
| 2026-05-06 13:51 | 45.11804 | 6.96825 | 32244 ft | 405 kts | 173° |
| 2026-05-06 13:51 | 45.09068 | 6.97767 | 32543 ft | 405 kts | 172° |
| 2026-05-06 13:51 | 45.06312 | 6.98790 | 32763 ft | 405 kts | 171° |
| 2026-05-06 13:51 | 45.03590 | 6.99826 | 33113 ft | 404 kts | 171° |
| 2026-05-06 13:52 | 45.00895 | 7.00846 | 33430 ft | 404 kts | 171° |
| 2026-05-06 13:52 | 44.98182 | 7.01853 | 33704 ft | 404 kts | 172° |
| 2026-05-06 13:52 | 44.95456 | 7.02844 | 34060 ft | 404 kts | 172° |
| 2026-05-06 13:52 | 44.92734 | 7.03816 | 34318 ft | 404 kts | 172° |
| 2026-05-06 13:53 | 44.90008 | 7.04783 | 34572 ft | 404 kts | 172° |
| 2026-05-06 13:53 | 44.87275 | 7.05752 | 34849 ft | 404 kts | 172° |
| 2026-05-06 13:53 | 44.84549 | 7.06724 | 35116 ft | 405 kts | 172° |
| 2026-05-06 13:53 | 44.81816 | 7.07699 | 35358 ft | 405 kts | 172° |
| 2026-05-06 13:54 | 44.79080 | 7.08673 | 35583 ft | 406 kts | 172° |
| 2026-05-06 13:54 | 44.76338 | 7.09651 | 35755 ft | 407 kts | 172° |
| 2026-05-06 13:54 | 44.73593 | 7.10627 | 35989 ft | 407 kts | 172° |
| 2026-05-06 13:54 | 44.70841 | 7.11606 | 36225 ft | 408 kts | 172° |
| 2026-05-06 13:55 | 44.68093 | 7.12584 | 36464 ft | 408 kts | 172° |
| 2026-05-06 13:55 | 44.65336 | 7.13564 | 36680 ft | 409 kts | 172° |
| 2026-05-06 13:55 | 44.62576 | 7.14543 | 36805 ft | 409 kts | 172° |
| 2026-05-06 13:55 | 44.59822 | 7.15518 | 36824 ft | 407 kts | 172° |
| 2026-05-06 13:56 | 44.54336 | 7.17458 | 36818 ft | 407 kts | 172° |
| 2026-05-06 13:56 | 44.48843 | 7.19399 | 36818 ft | 407 kts | 172° |
| 2026-05-06 13:57 | 44.43346 | 7.21332 | 36823 ft | 407 kts | 172° |
| 2026-05-06 13:57 | 44.37865 | 7.23261 | 36820 ft | 404 kts | 172° |
| 2026-05-06 13:58 | 44.32431 | 7.25165 | 36805 ft | 402 kts | 172° |
| 2026-05-06 13:58 | 44.26954 | 7.27070 | 36803 ft | 403 kts | 172° |
| 2026-05-06 13:59 | 44.21499 | 7.28980 | 36805 ft | 404 kts | 172° |
| 2026-05-06 13:59 | 44.16962 | 7.30559 | 36816 ft | 405 kts | 172° |
| 2026-05-06 14:00 | 44.11486 | 7.32465 | 36812 ft | 406 kts | 172° |
| 2026-05-06 14:00 | 44.06007 | 7.34368 | 36820 ft | 406 kts | 172° |
| 2026-05-06 14:01 | 44.03259 | 7.35323 | 36826 ft | 406 kts | 172° |
| 2026-05-06 14:01 | 43.99520 | 7.36637 | 36812 ft | 406 kts | 173° |
| 2026-05-06 14:02 | 43.94040 | 7.38534 | 36822 ft | 405 kts | 173° |
| 2026-05-06 14:02 | 43.88563 | 7.40408 | 36813 ft | 405 kts | 173° |
| 2026-05-06 14:03 | 43.83089 | 7.42288 | 36835 ft | 407 kts | 173° |
| 2026-05-06 14:03 | 43.77558 | 7.44197 | 36840 ft | 407 kts | 173° |
| 2026-05-06 14:04 | 43.72054 | 7.46068 | 36848 ft | 407 kts | 173° |
| 2026-05-06 14:04 | 43.66544 | 7.47918 | 36866 ft | 407 kts | 173° |
| 2026-05-06 14:05 | 43.61050 | 7.49768 | 36865 ft | 407 kts | 173° |
| 2026-05-06 14:05 | 43.55549 | 7.51627 | 36867 ft | 407 kts | 173° |
| 2026-05-06 14:06 | 43.50046 | 7.53476 | 36868 ft | 407 kts | 173° |
| 2026-05-06 14:06 | 43.44542 | 7.55321 | 36877 ft | 407 kts | 173° |
| 2026-05-06 14:07 | 43.39039 | 7.57165 | 36880 ft | 407 kts | 173° |
| 2026-05-06 14:07 | 43.33543 | 7.59007 | 36897 ft | 407 kts | 173° |
| 2026-05-06 14:08 | 43.28045 | 7.60840 | 36900 ft | 406 kts | 173° |
| 2026-05-06 14:08 | 43.22512 | 7.62690 | 36901 ft | 406 kts | 173° |
| 2026-05-06 14:09 | 43.17027 | 7.64514 | 36902 ft | 406 kts | 173° |
| 2026-05-06 14:09 | 43.11538 | 7.66326 | 36906 ft | 406 kts | 173° |
| 2026-05-06 14:10 | 43.06040 | 7.68148 | 36909 ft | 406 kts | 173° |
| 2026-05-06 14:10 | 43.00559 | 7.69958 | 36914 ft | 406 kts | 173° |
| 2026-05-06 14:11 | 42.95071 | 7.71778 | 36917 ft | 406 kts | 173° |
| 2026-05-06 14:11 | 42.89579 | 7.73594 | 36918 ft | 406 kts | 173° |
| 2026-05-06 14:12 | 42.84091 | 7.75404 | 36925 ft | 406 kts | 173° |
| 2026-05-06 14:12 | 42.78604 | 7.77207 | 36924 ft | 406 kts | 174° |
| 2026-05-06 14:13 | 42.73112 | 7.78995 | 36928 ft | 406 kts | 173° |
| 2026-05-06 14:13 | 42.67620 | 7.80788 | 36932 ft | 406 kts | 173° |
| 2026-05-06 14:14 | 42.62133 | 7.82583 | 36933 ft | 406 kts | 173° |
| 2026-05-06 14:14 | 42.56648 | 7.84376 | 36935 ft | 405 kts | 173° |
| 2026-05-06 14:15 | 42.51161 | 7.86160 | 36938 ft | 405 kts | 173° |
| 2026-05-06 14:15 | 42.45647 | 7.87952 | 36942 ft | 405 kts | 173° |
| 2026-05-06 14:16 | 42.40165 | 7.89730 | 36946 ft | 405 kts | 173° |
| 2026-05-06 14:16 | 42.34683 | 7.91493 | 36945 ft | 405 kts | 173° |
| 2026-05-06 14:17 | 42.29205 | 7.93265 | 36948 ft | 405 kts | 173° |
| 2026-05-06 14:17 | 42.23731 | 7.95034 | 36950 ft | 404 kts | 173° |
| 2026-05-06 14:18 | 42.18259 | 7.96795 | 36950 ft | 404 kts | 173° |
| 2026-05-06 14:18 | 42.12781 | 7.98566 | 36949 ft | 404 kts | 173° |
| 2026-05-06 14:19 | 42.07319 | 8.00323 | 36954 ft | 404 kts | 173° |
| 2026-05-06 14:19 | 42.01845 | 8.02072 | 36953 ft | 404 kts | 173° |
| 2026-05-06 14:20 | 41.96367 | 8.03554 | 36946 ft | 398 kts | 180° |
| 2026-05-06 14:20 | 41.90863 | 8.04393 | 36954 ft | 398 kts | 180° |
| 2026-05-06 14:21 | 41.85368 | 8.05244 | 36953 ft | 398 kts | 180° |
| 2026-05-06 14:21 | 41.79868 | 8.06099 | 36956 ft | 398 kts | 180° |
| 2026-05-06 14:22 | 41.74363 | 8.06950 | 36957 ft | 398 kts | 180° |
| 2026-05-06 14:22 | 41.68862 | 8.07803 | 36953 ft | 398 kts | 180° |
| 2026-05-06 14:23 | 41.63332 | 8.08655 | 36953 ft | 398 kts | 180° |
| 2026-05-06 14:23 | 41.57828 | 8.09504 | 36957 ft | 398 kts | 180° |
| 2026-05-06 14:24 | 41.52307 | 8.10359 | 36943 ft | 400 kts | 180° |
| 2026-05-06 14:24 | 41.46781 | 8.11210 | 36934 ft | 401 kts | 180° |
| 2026-05-06 14:25 | 41.41234 | 8.12053 | 36936 ft | 401 kts | 180° |
| 2026-05-06 14:25 | 41.35683 | 8.12930 | 36937 ft | 402 kts | 179° |
| 2026-05-06 14:26 | 41.30127 | 8.13861 | 36937 ft | 403 kts | 179° |
| 2026-05-06 14:26 | 41.24562 | 8.14791 | 36932 ft | 403 kts | 179° |
| 2026-05-06 14:27 | 41.19022 | 8.16040 | 36935 ft | 412 kts | 167° |
| 2026-05-06 14:27 | 41.16425 | 8.17763 | 36930 ft | 425 kts | 152° |
| 2026-05-06 14:27 | 41.14191 | 8.20413 | 36927 ft | 440 kts | 136° |
| 2026-05-06 14:28 | 41.10717 | 8.27291 | 36925 ft | 447 kts | 129° |
| 2026-05-06 14:28 | 41.07356 | 8.34184 | 36919 ft | 448 kts | 129° |
| 2026-05-06 14:29 | 41.03932 | 8.41161 | 36924 ft | 449 kts | 130° |
| 2026-05-06 14:29 | 41.00517 | 8.48079 | 36926 ft | 449 kts | 130° |
| 2026-05-06 14:30 | 40.98807 | 8.51495 | 36424 ft | 442 kts | 132° |
| 2026-05-06 14:30 | 40.97017 | 8.54779 | 35472 ft | 437 kts | 133° |
| 2026-05-06 14:30 | 40.95237 | 8.57998 | 34749 ft | 429 kts | 133° |
| 2026-05-06 14:30 | 40.93500 | 8.61164 | 34056 ft | 421 kts | 133° |
| 2026-05-06 14:31 | 40.91819 | 8.64301 | 33275 ft | 415 kts | 132° |
| 2026-05-06 14:31 | 40.90241 | 8.67484 | 32443 ft | 412 kts | 130° |
| 2026-05-06 14:31 | 40.88743 | 8.70696 | 31613 ft | 409 kts | 129° |
| 2026-05-06 14:31 | 40.87291 | 8.73906 | 30801 ft | 406 kts | 129° |
| 2026-05-06 14:32 | 40.85854 | 8.77091 | 30007 ft | 402 kts | 129° |
| 2026-05-06 14:32 | 40.84906 | 8.79179 | 29406 ft | 399 kts | 128° |
| 2026-05-06 14:32 | 40.83806 | 8.82579 | 28587 ft | 410 kts | 108° |
| 2026-05-06 14:32 | 40.83718 | 8.86375 | 27788 ft | 421 kts | 83° |
| 2026-05-06 14:33 | 40.84753 | 8.89994 | 27023 ft | 425 kts | 58° |
| 2026-05-06 14:33 | 40.86506 | 8.93128 | 26218 ft | 423 kts | 52° |
| 2026-05-06 14:33 | 40.89039 | 8.97069 | 25241 ft | 417 kts | 52° |
| 2026-05-06 14:33 | 40.90252 | 8.99089 | 24777 ft | 413 kts | 53° |
| 2026-05-06 14:34 | 40.91999 | 9.02077 | 24111 ft | 408 kts | 54° |
| 2026-05-06 14:34 | 40.93679 | 9.05077 | 23439 ft | 403 kts | 55° |
| 2026-05-06 14:34 | 40.95296 | 9.08082 | 22690 ft | 398 kts | 57° |
| 2026-05-06 14:34 | 40.96860 | 9.11066 | 21977 ft | 393 kts | 57° |
| 2026-05-06 14:35 | 40.98396 | 9.14030 | 21294 ft | 387 kts | 57° |
| 2026-05-06 14:35 | 40.99904 | 9.16946 | 20641 ft | 382 kts | 57° |
| 2026-05-06 14:35 | 41.01401 | 9.19832 | 19985 ft | 378 kts | 58° |
| 2026-05-06 14:35 | 41.02887 | 9.22675 | 19351 ft | 373 kts | 58° |
| 2026-05-06 14:36 | 41.04365 | 9.25484 | 18716 ft | 369 kts | 58° |
| 2026-05-06 14:36 | 41.05742 | 9.28267 | 18438 ft | 350 kts | 69° |
| 2026-05-06 14:36 | 41.06294 | 9.31244 | 18162 ft | 322 kts | 98° |
| 2026-05-06 14:36 | 41.05765 | 9.33972 | 17646 ft | 297 kts | 128° |
| 2026-05-06 14:37 | 41.04422 | 9.35910 | 17041 ft | 280 kts | 151° |
| 2026-05-06 14:37 | 41.02805 | 9.37346 | 16384 ft | 282 kts | 152° |
| 2026-05-06 14:37 | 41.01169 | 9.38778 | 15777 ft | 280 kts | 156° |
| 2026-05-06 14:37 | 40.99362 | 9.39477 | 15225 ft | 267 kts | 185° |
| 2026-05-06 14:38 | 40.97610 | 9.38901 | 14678 ft | 259 kts | 213° |
| 2026-05-06 14:38 | 40.96318 | 9.37275 | 14115 ft | 258 kts | 235° |
| 2026-05-06 14:38 | 40.95289 | 9.35318 | 13512 ft | 259 kts | 235° |
| 2026-05-06 14:38 | 40.94266 | 9.33350 | 12933 ft | 260 kts | 236° |
| 2026-05-06 14:39 | 40.93247 | 9.31389 | 12411 ft | 258 kts | 235° |
| 2026-05-06 14:39 | 40.92233 | 9.29447 | 11890 ft | 256 kts | 235° |
| 2026-05-06 14:39 | 40.91224 | 9.27521 | 11386 ft | 254 kts | 235° |
| 2026-05-06 14:39 | 40.90219 | 9.25612 | 10872 ft | 252 kts | 235° |
| 2026-05-06 14:40 | 40.89219 | 9.23716 | 10413 ft | 251 kts | 234° |
| 2026-05-06 14:40 | 40.88213 | 9.21805 | 9932 ft | 249 kts | 234° |
| 2026-05-06 14:40 | 40.87240 | 9.19956 | 9430 ft | 248 kts | 234° |
| 2026-05-06 14:40 | 40.86246 | 9.18068 | 8867 ft | 246 kts | 234° |
| 2026-05-06 14:41 | 40.85265 | 9.16203 | 8028 ft | 253 kts | 235° |
| 2026-05-06 14:41 | 40.84101 | 9.14404 | 7170 ft | 262 kts | 216° |
| 2026-05-06 14:41 | 40.82424 | 9.13508 | 6700 ft | 265 kts | 187° |
| 2026-05-06 14:41 | 40.80606 | 9.13796 | 6314 ft | 268 kts | 162° |
| 2026-05-06 14:42 | 40.78853 | 9.14625 | 5903 ft | 268 kts | 163° |
| 2026-05-06 14:42 | 40.77091 | 9.15410 | 5503 ft | 266 kts | 163° |
| 2026-05-06 14:42 | 40.75340 | 9.16188 | 5104 ft | 265 kts | 163° |
| 2026-05-06 14:42 | 40.73735 | 9.17363 | 4768 ft | 266 kts | 137° |
| 2026-05-06 14:43 | 40.72803 | 9.19399 | 4637 ft | 260 kts | 104° |
| 2026-05-06 14:43 | 40.72943 | 9.21698 | 4516 ft | 252 kts | 65° |
| 2026-05-06 14:43 | 40.74069 | 9.23345 | 4376 ft | 240 kts | 27° |
| 2026-05-06 14:43 | 40.75531 | 9.24317 | 4248 ft | 232 kts | 33° |
| 2026-05-06 14:44 | 40.76507 | 9.25929 | 4126 ft | 224 kts | 66° |
| 2026-05-06 14:44 | 40.77212 | 9.27687 | 4050 ft | 211 kts | 57° |
| 2026-05-06 14:44 | 40.78029 | 9.29256 | 3995 ft | 207 kts | 55° |
| 2026-05-06 14:45 | 40.79569 | 9.32161 | 3875 ft | 184 kts | 55° |
| 2026-05-06 14:45 | 40.80301 | 9.33549 | 3648 ft | 184 kts | 54° |
| 2026-05-06 14:45 | 40.81026 | 9.34925 | 3397 ft | 182 kts | 54° |
| 2026-05-06 14:45 | 40.81746 | 9.36294 | 3110 ft | 180 kts | 55° |
| 2026-05-06 14:46 | 40.82464 | 9.37657 | 2826 ft | 181 kts | 54° |
| 2026-05-06 14:46 | 40.83178 | 9.39014 | 2550 ft | 179 kts | 54° |
| 2026-05-06 14:46 | 40.83881 | 9.40351 | 2273 ft | 174 kts | 55° |
| 2026-05-06 14:46 | 40.84555 | 9.41635 | 2012 ft | 167 kts | 55° |
| 2026-05-06 14:47 | 40.85200 | 9.42864 | 1753 ft | 159 kts | 55° |
| 2026-05-06 14:47 | 40.85826 | 9.44055 | 1493 ft | 153 kts | 55° |
| 2026-05-06 14:47 | 40.86420 | 9.45186 | 1285 ft | 147 kts | 55° |
| 2026-05-06 14:47 | 40.86995 | 9.46283 | 1044 ft | 143 kts | 54° |
| 2026-05-06 14:48 | 40.87555 | 9.47350 | 837 ft | 141 kts | 55° |
| 2026-05-06 14:48 | 40.88104 | 9.48398 | 606 ft | 134 kts | 54° |
| 2026-05-06 14:48 | 40.88640 | 9.49402 | 372 ft | 133 kts | 56° |
| 2026-05-06 14:48 | 40.89153 | 9.50400 | 161 ft | 131 kts | 58° |
| 2026-05-06 14:49 | 40.89660 | 9.51370 | 37 ft | 121 kts | 57° |
| 2026-05-06 14:49 | 40.90029 | 9.52073 | 34 ft | 53 kts | 55° |
| 2026-05-06 14:49 | 40.90214 | 9.52428 | 34 ft | 43 kts | 55° |
| 2026-05-06 14:49 | 40.90336 | 9.52654 | 34 ft | 16 kts | 47° |
| 2026-05-06 14:50 | 40.90417 | 9.52687 | 34 ft | 9 kts | 347° |
| 2026-05-06 14:50 | 40.90452 | 9.52631 | 34 ft | 9 kts | 276° |
| 2026-05-06 14:50 | 40.90455 | 9.52517 | 34 ft | 11 kts | 268° |
| 2026-05-06 14:50 | 40.90420 | 9.52431 | 34 ft | 11 kts | 235° |
| 2026-05-06 14:51 | 40.90365 | 9.52324 | 34 ft | 17 kts | 235° |
| 2026-05-06 14:51 | 40.90302 | 9.52203 | 34 ft | 15 kts | 235° |
| 2026-05-06 14:51 | 40.90243 | 9.52092 | 34 ft | 14 kts | 235° |
| 2026-05-06 14:51 | 40.90191 | 9.51990 | 33 ft | 10 kts | 239° |
| 2026-05-06 14:52 | 40.90176 | 9.51926 | 34 ft | 5 kts | 267° |
| 2026-05-06 14:52 | 40.90177 | 9.51909 | 34 ft | 0 kts | 279° |
| 2026-05-06 14:53 | 40.90178 | 9.51903 | 34 ft | 3 kts | 279° |
| 2026-05-06 14:54 | 40.90186 | 9.51846 | 34 ft | 9 kts | 281° |
| 2026-05-06 14:54 | 40.90219 | 9.51786 | 34 ft | 7 kts | 319° |
| 2026-05-06 14:54 | 40.90205 | 9.51729 | 34 ft | 9 kts | 235° |
| 2026-05-06 14:54 | 40.90182 | 9.51666 | 34 ft | 6 kts | 288° |
| 2026-05-06 14:55 | 40.90207 | 9.51633 | 34 ft | 5 kts | 325° |
| 2026-05-06 14:55 | 40.90223 | 9.51619 | 34 ft | 1 kts | 325° |
| 2026-05-06 14:55 | 40.90226 | 9.51616 | 34 ft | 0 kts | 325° |